METAR EDWI 212020Z AUTO 07010KT 8000 NSC 19/M00 Q1015=

Die Wetterinformationen haben nur informativen Charakter
und dürfen nicht zum Zwecke der Flugplanung benutzt werden.

Heute ist
Montag, 21.05.2018
Sonnenaufgang
05:15 MESZ
Sonnenuntergang
21:32 MESZ

Platzöffnung
09:00 - 19:30 MESZ

StartseiteFlugplatzinfoFirmen & VereineWiking Helikopter Service

WIKING wurde im August 1975 von der VTG Vereinigte Tanklager und Transportmittel GmbH, Hamburg, einem Unternehmen der damaligen Preussag AG und dem norwegischen Hubschrauberunternehmen Helikopter Service A.S., Oslo gegründet.

Seit 2001 werden sämtliche Gesellschaftsanteile von der Linnhoff Schifffahrt GmbH & Co. KG gehalten. Zu dieser Gesellschaft gehören auch die URAG Unterweser Reederei GmbH und die RF Forschungsschiffahrt GmbH mit ihren Tochtergesellschaften.

Der Firmensitz der WIKING Helikopter Service GmbH befindet sich in Bremen. Die Operationsbasis liegt direkt an der Nordseeküste, auf dem JadeWeserAirport® (ehemals Flugplatz Wilhelmshaven-Mariensiel), nur 30 Flugminuten von Hamburg entfernt.

 

Wir können unsere Dienste für alle Häfen und Offshore Einrichtungen in der Region anbieten. In naher Zukunft wird der JadeWeserPort® in Wilhelmshaven vor den Toren der WIKING sein.

Seit 2008 arbeiten wir mit der AG Reederei Norden-Frisia (Norden, Norddeich) für den Geschäftsbereich Offshore-Windkraft zusammen.



Besuchen sie auch unsere Homepage  Wiking Helikopter Service

Go to top